Flight Track Log - Related Links

Times and Time Zones

All times are in EDT time to prevent confusion due to time zone crossing. See the LXJ609 flight status page for this flight to view local times or setup timezone preferences in your user account.

Time Position Orientation Groundspeed Altitude Reporting Facility
EDT Latitude Longitude Course Direction KTS MPH feet Rate Location/Type
Wed 05:09:09 PM 40.8333 -74.0833 252° West 171 197 1,100  Level New York TRACON
Wed 05:10:09 PM 40.8167 -74.1500 252° West 212 244 1,600 1,500 Climbing New York TRACON
Wed 05:11:09 PM 40.7833 -74.2167 237° Southwest 225 259 4,100 2,168 Climbing New York TRACON
Wed 05:12:08 PM 40.7167 -74.2500 201° Southwest 258 297 5,900 958 Climbing New York TRACON
Wed 05:13:08 PM 40.6333 -74.2500 180° South 282 325 6,000 50 Climbing New York TRACON
Wed 05:14:08 PM 40.5500 -74.2667 189° South 282 325 6,000  Level New York TRACON
Wed 05:15:08 PM 40.4833 -74.2500 169° South 273 314 6,000  Level New York TRACON
Wed 05:16:08 PM 40.4167 -74.2000 150° Southeast 271 312 6,000 698 Level New York TRACON
Wed 05:17:17 PM 40.3683 -74.1217 129° Southeast 268 308 7,500 2,123 Climbing New York Center
Wed 05:18:18 PM 40.3106 -74.0969 162° South 239 275 10,600 2,975 Climbing New York Center
Wed 05:19:18 PM 40.2175 -74.1414 200° South 262 302 13,500 3,305 Climbing New York Center
Wed 05:20:16 PM 40.1267 -74.1886 202° Southwest 340 391 17,100 3,300 Climbing New York Center
Wed 05:20:38 PM 40.0867 -74.2058 198° South 395 455 17,900 2,420 Climbing Washington Center
Wed 05:22:15 PM 39.9297 -74.3253 210° Southwest 403 464 21,900 1,937 Climbing Washington Center
Wed 05:23:16 PM 39.8328 -74.4133 215° Southwest 432 497 23,000 1,311 Climbing Washington Center
Wed 05:24:14 PM 39.7483 -74.5256 226° Southwest 438 504 24,500 1,866 Climbing Washington Center
Wed 05:25:15 PM 39.6578 -74.6428 225° Southwest 444 511 26,700 2,115 Climbing Washington Center
Wed 05:26:16 PM 39.5586 -74.7733 225° Southwest 454 522 28,800 1,884 Climbing Washington Center
Wed 05:27:16 PM 39.4636 -74.8981 225° Southwest 466 536 30,500 1,525 Climbing Washington Center
Wed 05:28:14 PM 39.3706 -75.0197 225° Southwest 478 550 31,800 1,576 Climbing Washington Center
Wed 05:29:14 PM 39.2625 -75.1253 217° Southwest 483 556 33,600 1,835 Climbing Washington Center
Wed 05:30:15 PM 39.1336 -75.1822 199° South 483 556 35,500 1,785 Climbing Washington Center
Wed 05:31:15 PM 39.0086 -75.2364 199° South 483 556 37,200 1,686 Climbing Washington Center
Wed 05:32:16 PM 38.8836 -75.2878 198° South 483 556 38,900 1,488 Climbing Washington Center
Wed 05:33:16 PM 38.7628 -75.3414 199° South 472 543 40,200 1,169 Climbing Washington Center
Wed 05:34:14 PM 38.6422 -75.3922 198° South 467 537 41,200 1,068 Climbing Washington Center
Wed 05:35:14 PM 38.5233 -75.4406 198° South 461 531 42,300 885 Climbing Washington Center
Wed 05:36:16 PM 38.4025 -75.4911 198° South 461 531 43,000 344 Climbing Washington Center
Wed 05:37:16 PM 38.2919 -75.5336 197° South 461 531 43,000  Level Washington Center
Wed 05:38:14 PM 38.1794 -75.6075 207° Southwest 466 536 43,000  Level Washington Center
Wed 05:39:15 PM 38.0689 -75.6867 209° Southwest 455 524 43,000  Level Washington Center
Wed 05:40:16 PM 37.9519 -75.7761 211° Southwest 450 518 43,000  Level Washington Center
Wed 05:41:14 PM 37.8517 -75.8417 207° Southwest 450 518 43,000  Level Washington Center
Wed 05:42:15 PM 37.7347 -75.9331 212° Southwest 450 518 43,000  Level Washington Center
Wed 05:43:16 PM 37.6261 -76.0086 209° Southwest 450 518 43,000  Level Washington Center
Wed 05:44:16 PM 37.5194 -76.0867 210° Southwest 450 518 43,000  Level Washington Center
Wed 05:45:14 PM 37.4314 -76.1464 208° Southwest 450 518 43,000  Level Washington Center
Wed 05:46:15 PM 37.3081 -76.2289 208° Southwest 455 524 43,000  Level Washington Center
Wed 05:47:16 PM 37.1992 -76.3064 210° Southwest 455 524 43,000  Level Washington Center
Wed 05:48:14 PM 37.0881 -76.3808 208° Southwest 455 524 43,000  Level Washington Center
Wed 05:49:15 PM 36.9811 -76.4578 210° Southwest 460 529 43,000  Level Washington Center
Wed 05:50:15 PM 36.8722 -76.5317 208° Southwest 460 529 43,000  Level Washington Center
Wed 05:51:16 PM 36.7650 -76.6083 210° Southwest 454 522 43,000  Level Washington Center
Wed 05:52:14 PM 36.6475 -76.6947 211° Southwest 449 517 43,000  Level Washington Center
Wed 05:53:14 PM 36.5406 -76.7683 209° Southwest 449 517 43,000  Level Washington Center
Wed 05:54:15 PM 36.4439 -76.8339 209° Southwest 442 509 43,000  Level Washington Center
Wed 05:55:15 PM 36.3261 -76.9119 208° Southwest 442 509 43,000  Level Washington Center
Wed 05:56:16 PM 36.2253 -76.9797 208° Southwest 437 503 43,000  Level Washington Center
Wed 05:57:16 PM 36.1222 -77.0500 209° Southwest 432 497 43,000  Level Washington Center
Wed 05:58:14 PM 36.0272 -77.1306 214° Southwest 426 490 43,000  Level Washington Center
Wed 05:59:14 PM 35.9364 -77.2133 216° Southwest 415 478 43,000  Level Washington Center
Wed 06:00:15 PM 35.8456 -77.2961 216° Southwest 415 478 43,000  Level Washington Center
Wed 06:01:15 PM 35.7525 -77.3811 217° Southwest 415 478 43,000  Level Washington Center
Wed 06:02:16 PM 35.6594 -77.4633 216° Southwest 415 478 43,000  Level Washington Center
Wed 06:03:16 PM 35.5664 -77.5456 216° Southwest 415 478 43,000  Level Washington Center
Wed 06:04:14 PM 35.4922 -77.6100 215° Southwest 415 478 43,000  Level Washington Center
Wed 06:05:15 PM 35.3925 -77.7017 217° Southwest 415 478 43,000  Level Washington Center
Wed 06:06:15 PM 35.2972 -77.7831 215° Southwest 415 478 43,000  Level Washington Center
Wed 06:07:16 PM 35.2017 -77.8669 216° Southwest 415 478 43,000  Level Washington Center
Wed 06:08:16 PM 35.1083 -77.9481 215° Southwest 415 478 43,000 -305 Level Washington Center
Wed 06:09:14 PM 35.0169 -78.0292 216° Southwest 415 478 42,400 -1,300 Descending Washington Center
Wed 06:10:16 PM 34.9256 -78.1100 216° Southwest 415 478 40,400 -1,967 Descending Washington Center
Wed 06:11:16 PM 34.8406 -78.1883 217° Southwest 409 471 38,400 -2,237 Descending Washington Center
Wed 06:12:14 PM 34.7447 -78.2739 216° Southwest 409 471 36,000 -2,400 Descending Washington Center
Wed 06:14:16 PM 34.5403 -78.4439 214° Southwest 446 513 31,200 -2,505 Descending Jacksonville Center
Wed 06:15:16 PM 34.4353 -78.5400 217° Southwest 457 526 28,400 -2,850 Descending Jacksonville Center
Wed 06:16:16 PM 34.3278 -78.6358 216° Southwest 478 550 25,500 -2,100 Descending Jacksonville Center
Wed 06:17:16 PM 34.2247 -78.7314 217° Southwest 478 550 24,200 -1,500 Descending Jacksonville Center
Wed 06:18:16 PM 34.1358 -78.8233 221° Southwest 462 532 22,500 -2,450 Descending Jacksonville Center
Wed 06:19:16 PM 34.0450 -78.9153 220° Southwest 443 510 19,300 -3,300 Descending Jacksonville Center
Wed 06:20:16 PM 33.9558 -79.0019 219° Southwest 430 495 15,900 -3,400 Descending Jacksonville Center
Wed 06:21:16 PM 33.8794 -79.0953 225° Southwest 412 474 12,500 -2,550 Descending Jacksonville Center
Wed 06:22:16 PM 33.8578 -79.2064 257° West 364 419 10,800 -1,700 Descending Jacksonville Center
Wed 06:23:16 PM 33.8375 -79.3022 256° West 329 379 9,100 -1,700 Descending Jacksonville Center
Wed 06:24:16 PM 33.8192 -79.3931 256° West 304 350 7,400 -1,850 Descending Jacksonville Center
Wed 06:25:16 PM 33.7989 -79.4861 255° West 276 318 5,400 -1,850 Descending Jacksonville Center
Wed 06:26:16 PM 33.7803 -79.5744 256° West 276 318 3,700 -1,250 Descending Jacksonville Center
Wed 06:27:16 PM 33.7617 -79.6600 255° West 271 312 2,900 -400 Descending Jacksonville Center
Wed 06:28:16 PM 33.7467 -79.7256 255° West 243 280 2,900 -200 Level Jacksonville Center
Wed 06:29:16 PM 33.7294 -79.7936 253° West 227 261 2,500 -400 Descending Jacksonville Center
Wed 06:31:00 PM 33.7167 -79.8500 259° West  Level FlightAware Approximate
Wed 06:38:00 PM 33.7172 -79.8570 259° West  Level Estimated
Wed 06:39:00 PM 33.7167 -79.8500 259° West  Level FlightAware Approximate
Wed 06:40:00 PM 33.7172 -79.8570 259° West  Level Estimated
Wed 06:41:00 PM 33.7167 -79.8500 259° West  Level FlightAware Approximate
Wed 06:42:00 PM 33.7172 -79.8570 259° West  Level Estimated
Wed 06:43:00 PM 33.7167 -79.8500 259° West  Level FlightAware Approximate
Wed 06:44:00 PM 33.7172 -79.8570 259° West  Level Estimated
Wed 06:45:00 PM 33.7167 -79.8500 259° West  Level FlightAware Approximate
Wed 06:46:00 PM 33.7172 -79.8570 259° West  Level Estimated
Wed 06:47:00 PM 33.7167 -79.8500 259° West  Level FlightAware Approximate
Wed 06:48:00 PM 33.7172 -79.8570 259° West  Level Estimated

Login

Don't have an account? Register now (free) for customized features, flight alerts, and more!